createdAt,value
2018-02-23T00:01:22.394Z,48.60
2018-02-23T00:03:48.918Z,48.60
2018-02-23T00:06:16.190Z,49.20
2018-02-23T00:08:43.219Z,48.50
2018-02-23T00:11:09.446Z,48.50
2018-02-23T00:13:35.675Z,48.80
2018-02-23T00:16:02.873Z,49.00
2018-02-23T00:18:29.100Z,48.90
2018-02-23T00:20:55.933Z,48.90
2018-02-23T00:23:22.242Z,49.00
2018-02-23T00:25:48.475Z,49.10
2018-02-23T00:28:15.286Z,49.40
2018-02-23T00:30:41.681Z,49.20
2018-02-23T00:33:08.742Z,48.90
2018-02-23T00:35:35.720Z,49.10
2018-02-23T00:38:01.954Z,49.00
2018-02-23T00:40:28.818Z,49.30
2018-02-23T00:42:55.570Z,49.90
2018-02-23T00:45:22.579Z,50.70
2018-02-23T00:47:48.899Z,50.70
2018-02-23T00:50:15.634Z,50.30
2018-02-23T00:52:42.226Z,50.20
2018-02-23T00:55:09.231Z,49.40
2018-02-23T00:57:35.506Z,49.40
2018-02-23T01:00:02.470Z,50.00
2018-02-23T01:02:30.398Z,50.30
2018-02-23T01:04:58.386Z,50.70
2018-02-23T01:07:25.340Z,50.50
2018-02-23T01:09:52.307Z,50.80
2018-02-23T01:12:19.648Z,50.70
2018-02-23T01:14:47.370Z,50.60
2018-02-23T01:17:13.575Z,50.60
2018-02-23T01:19:40.076Z,50.80
2018-02-23T01:22:07.932Z,51.40
2018-02-23T01:24:35.992Z,51.10
2018-02-23T01:27:02.401Z,51.00
2018-02-23T01:29:28.953Z,50.90
2018-02-23T01:31:56.666Z,51.30
2018-02-23T01:34:22.893Z,51.30
2018-02-23T01:36:49.534Z,51.10
2018-02-23T01:39:16.973Z,52.00
2018-02-23T01:41:43.976Z,52.00
2018-02-23T01:44:11.554Z,51.30
2018-02-23T01:46:38.723Z,51.20
2018-02-23T01:49:05.714Z,51.30
2018-02-23T01:51:32.252Z,51.20
2018-02-23T01:53:59.383Z,51.30
2018-02-23T01:56:25.632Z,51.30
2018-02-23T01:58:52.560Z,51.10
2018-02-23T02:01:18.797Z,51.10
2018-02-23T02:03:45.018Z,51.20
2018-02-23T02:06:11.230Z,51.60
2018-02-23T02:08:38.420Z,51.30
2018-02-23T02:11:05.173Z,51.10
2018-02-23T02:13:31.391Z,51.10
2018-02-23T02:15:57.678Z,50.80
2018-02-23T02:18:25.017Z,50.80
2018-02-23T02:20:51.805Z,50.60
2018-02-23T02:23:18.562Z,50.90
2018-02-23T02:25:45.292Z,51.10
2018-02-23T02:28:11.648Z,51.20
2018-02-23T02:30:39.653Z,51.60
2018-02-23T02:33:06.069Z,51.60
2018-02-23T02:35:32.264Z,51.30
2018-02-23T02:37:59.402Z,50.90
2018-02-23T02:40:26.445Z,51.50
2018-02-23T02:42:52.658Z,51.50
2018-02-23T02:45:20.130Z,51.80
2018-02-23T02:47:46.393Z,52.60
2018-02-23T02:50:13.332Z,51.50
2018-02-23T02:52:40.271Z,52.20
2018-02-23T02:55:07.568Z,52.10
2018-02-23T02:57:34.621Z,51.80
2018-02-23T03:00:01.581Z,51.80
2018-02-23T03:02:28.520Z,51.80
2018-02-23T03:04:54.767Z,51.40
2018-02-23T03:07:22.004Z,51.90
2018-02-23T03:09:48.438Z,52.00
2018-02-23T03:12:14.940Z,51.70
2018-02-23T03:14:42.506Z,51.60
2018-02-23T03:17:09.540Z,51.60
2018-02-23T03:19:35.868Z,51.60
2018-02-23T03:22:02.218Z,51.60
2018-02-23T03:24:28.452Z,51.50
2018-02-23T03:26:55.243Z,51.60
2018-02-23T03:29:22.800Z,51.90
2018-02-23T03:31:49.046Z,51.80
2018-02-23T03:34:16.678Z,52.40
2018-02-23T03:36:43.646Z,52.20
2018-02-23T03:39:10.440Z,52.00
2018-02-23T03:41:36.721Z,52.10
2018-02-23T03:44:03.689Z,52.60
2018-02-23T03:46:30.526Z,52.50
2018-02-23T03:48:57.215Z,53.10
2018-02-23T03:51:24.213Z,52.90
2018-02-23T03:53:50.407Z,52.90
2018-02-23T03:56:17.630Z,52.80
2018-02-23T03:58:45.058Z,52.80
2018-02-23T04:01:12.755Z,52.90
2018-02-23T04:03:39.004Z,53.00
2018-02-23T04:06:06.508Z,52.80
2018-02-23T04:08:32.970Z,52.80
2018-02-23T04:10:59.176Z,52.70
2018-02-23T04:13:25.957Z,52.70
2018-02-23T04:15:52.379Z,52.50
2018-02-23T04:18:18.619Z,52.60
2018-02-23T04:20:45.686Z,52.60
2018-02-23T04:23:12.153Z,52.60
2018-02-23T04:25:38.894Z,52.30
2018-02-23T04:28:05.114Z,52.20
2018-02-23T04:30:31.387Z,52.80
2018-02-23T04:32:57.581Z,52.50
2018-02-23T04:35:23.864Z,52.50
2018-02-23T04:37:50.829Z,52.40
2018-02-23T04:40:17.257Z,52.40
2018-02-23T04:42:44.352Z,52.70
2018-02-23T04:45:10.911Z,52.80
2018-02-23T04:47:38.514Z,53.90
2018-02-23T04:50:05.549Z,53.10
2018-02-23T04:52:31.805Z,53.10
2018-02-23T04:54:58.547Z,53.10
2018-02-23T04:57:24.760Z,53.40
2018-02-23T04:59:51.089Z,53.50
2018-02-23T05:02:17.910Z,53.80
2018-02-23T05:04:44.102Z,53.30
2018-02-23T05:07:10.492Z,52.90
2018-02-23T05:09:37.599Z,53.00
2018-02-23T05:12:04.774Z,52.80
2018-02-23T05:14:31.998Z,52.80
2018-02-23T05:16:59.956Z,53.10
2018-02-23T05:19:26.496Z,53.10
2018-02-23T05:21:53.503Z,53.00
2018-02-23T05:24:19.784Z,52.90
2018-02-23T05:26:46.832Z,53.10
2018-02-23T05:29:14.534Z,53.00
2018-02-23T05:31:40.967Z,53.00
2018-02-23T05:34:07.205Z,53.00
2018-02-23T05:36:34.025Z,53.50
2018-02-23T05:39:00.215Z,53.50
2018-02-23T05:41:27.224Z,53.10
2018-02-23T05:43:53.551Z,53.10
2018-02-23T05:46:19.764Z,53.00
2018-02-23T05:48:46.667Z,54.00
2018-02-23T05:51:14.912Z,54.50
2018-02-23T05:53:41.642Z,54.50
2018-02-23T05:56:07.874Z,54.10
2018-02-23T05:58:34.102Z,54.30
2018-02-23T06:01:00.433Z,54.30
2018-02-23T06:03:26.661Z,54.60
2018-02-23T06:05:52.970Z,54.10
2018-02-23T06:08:19.185Z,54.10
2018-02-23T06:10:46.040Z,54.30
2018-02-23T06:13:13.581Z,54.10
2018-02-23T06:15:46.740Z,55.60
2018-02-23T06:18:19.910Z,55.10
2018-02-23T06:20:46.447Z,55.20
2018-02-23T06:23:12.688Z,54.70
2018-02-23T06:25:38.918Z,54.70
2018-02-23T06:28:06.066Z,55.10
2018-02-23T06:30:32.751Z,55.20
2018-02-23T06:32:59.007Z,55.10
2018-02-23T06:35:25.265Z,54.70
2018-02-23T06:37:52.247Z,55.20
2018-02-23T06:40:18.474Z,55.10
2018-02-23T06:42:45.789Z,55.20
2018-02-23T06:45:13.212Z,55.60
2018-02-23T06:47:41.086Z,55.40
2018-02-23T06:50:07.334Z,55.40
2018-02-23T06:52:33.748Z,55.90
2018-02-23T06:55:01.146Z,56.60
2018-02-23T06:57:28.569Z,57.80
2018-02-23T06:59:55.731Z,59.10
2018-02-23T07:02:24.196Z,59.60
2018-02-23T07:04:50.401Z,59.60
2018-02-23T07:07:16.606Z,60.10
2018-02-23T07:09:43.496Z,60.70
2018-02-23T07:12:10.640Z,60.10
2018-02-23T07:14:37.732Z,59.80
2018-02-23T07:17:04.550Z,59.80
2018-02-23T07:19:31.599Z,61.30
2018-02-23T07:21:58.649Z,61.80
2018-02-23T07:24:25.610Z,61.30
2018-02-23T07:26:52.870Z,61.30
2018-02-23T07:29:20.105Z,60.80
2018-02-23T07:31:47.649Z,60.00
2018-02-23T07:34:13.895Z,60.00
2018-02-23T07:36:40.853Z,60.40
2018-02-23T07:39:07.066Z,60.40
2018-02-23T07:41:35.521Z,58.30
2018-02-23T07:44:01.787Z,58.30
2018-02-23T07:46:28.016Z,58.30
2018-02-23T07:48:55.766Z,56.70
2018-02-23T07:51:24.008Z,58.10
2018-02-23T07:53:50.955Z,58.00
2018-02-23T07:56:18.643Z,56.50
2018-02-23T07:58:46.157Z,56.20
2018-02-23T08:01:13.675Z,56.20
2018-02-23T08:03:40.469Z,53.30
2018-02-23T08:06:07.148Z,54.20
2018-02-23T08:08:34.757Z,52.50
2018-02-23T08:11:01.569Z,52.50
2018-02-23T08:13:27.782Z,51.60
2018-02-23T08:15:55.463Z,52.00
2018-02-23T08:18:21.672Z,52.20
2018-02-23T08:20:47.894Z,49.70
2018-02-23T08:23:14.866Z,48.80
2018-02-23T08:25:41.252Z,48.80
2018-02-23T08:28:08.284Z,50.40
2018-02-23T08:30:34.968Z,50.30
2018-02-23T08:33:01.250Z,49.90
2018-02-23T08:35:27.507Z,48.60
2018-02-23T08:37:54.474Z,46.70
2018-02-23T08:40:21.236Z,46.70
2018-02-23T08:42:48.599Z,46.20
2018-02-23T08:45:15.095Z,46.30
2018-02-23T08:47:42.231Z,46.10
2018-02-23T08:50:09.367Z,46.60
2018-02-23T08:52:36.325Z,44.80
2018-02-23T08:55:04.053Z,43.70
2018-02-23T08:57:31.823Z,44.90
2018-02-23T08:59:58.047Z,44.80
2018-02-23T09:02:24.836Z,43.90
2018-02-23T09:04:52.521Z,44.20
2018-02-23T09:07:19.989Z,44.50
2018-02-23T09:09:47.477Z,41.10
2018-02-23T09:12:14.451Z,42.50
2018-02-23T09:14:40.684Z,42.40
2018-02-23T09:17:07.017Z,42.90
2018-02-23T09:19:33.484Z,42.20
2018-02-23T09:22:01.115Z,42.10
2018-02-23T09:24:27.582Z,42.00
2018-02-23T09:26:55.169Z,41.70
2018-02-23T09:29:22.132Z,40.70
2018-02-23T09:31:49.033Z,40.70
2018-02-23T09:34:27.455Z,40.00
2018-02-23T09:36:54.820Z,40.00
2018-02-23T09:39:22.308Z,40.40
2018-02-23T09:41:48.648Z,40.30
2018-02-23T09:44:15.267Z,38.70
2018-02-23T09:46:42.521Z,41.20
2018-02-23T09:49:09.600Z,39.60
2018-02-23T09:51:36.663Z,39.60
2018-02-23T09:54:03.254Z,39.00
2018-02-23T09:56:30.193Z,40.30
2018-02-23T09:58:57.902Z,40.20
2018-02-23T10:01:24.105Z,40.10
2018-02-23T10:03:51.476Z,40.90
2018-02-23T10:06:18.093Z,39.90
2018-02-23T10:08:46.085Z,40.50
2018-02-23T10:11:12.326Z,40.60
2018-02-23T10:13:39.047Z,40.60
2018-02-23T10:16:05.249Z,40.30
2018-02-23T10:18:31.473Z,39.40
2018-02-23T10:20:57.683Z,39.60
2018-02-23T10:23:24.611Z,41.20
2018-02-23T10:25:50.889Z,41.10
2018-02-23T10:28:17.800Z,40.20
2018-02-23T10:30:45.415Z,39.40
2018-02-23T10:33:12.524Z,39.40
2018-02-23T10:35:39.621Z,39.60
2018-02-23T10:38:06.281Z,39.70
2018-02-23T10:40:32.589Z,44.50
2018-02-23T10:42:59.347Z,41.30
2018-02-23T10:45:26.217Z,37.20
2018-02-23T10:47:53.380Z,35.00
2018-02-23T10:52:54.183Z,35.60
2018-02-23T10:55:20.404Z,35.30
2018-02-23T10:57:47.326Z,36.20
2018-02-23T11:00:13.784Z,36.20
2018-02-23T11:02:40.287Z,36.40
2018-02-23T11:05:07.449Z,35.50
2018-02-23T11:07:33.697Z,35.50
2018-02-23T11:10:01.113Z,36.30
2018-02-23T11:12:28.386Z,36.40
2018-02-23T11:14:55.624Z,36.70
2018-02-23T11:17:22.479Z,36.80
2018-02-23T11:19:48.758Z,36.80
2018-02-23T11:22:15.764Z,36.50
2018-02-23T11:24:41.984Z,36.50
2018-02-23T11:27:08.434Z,35.90
2018-02-23T11:29:35.141Z,35.50
2018-02-23T11:32:02.817Z,35.50
2018-02-23T11:34:29.085Z,35.50
2018-02-23T11:36:57.075Z,35.40
2018-02-23T11:39:24.641Z,35.90
2018-02-23T11:41:51.384Z,35.90
2018-02-23T11:44:17.619Z,36.60
2018-02-23T11:46:43.885Z,35.90
2018-02-23T11:49:10.697Z,35.60
2018-02-23T11:51:36.921Z,34.90
2018-02-23T11:54:03.141Z,34.80
2018-02-23T11:56:30.533Z,35.00
2018-02-23T11:58:57.429Z,35.70
2018-02-23T12:01:24.941Z,35.60
2018-02-23T12:03:51.928Z,35.80
2018-02-23T12:06:19.615Z,36.10
2018-02-23T12:08:46.315Z,36.10
2018-02-23T12:11:13.585Z,35.10
2018-02-23T12:13:41.198Z,36.00
2018-02-23T12:16:07.903Z,36.00
2018-02-23T12:18:34.113Z,36.30
2018-02-23T12:21:00.340Z,36.60
2018-02-23T12:23:26.757Z,35.70
2018-02-23T12:25:54.035Z,35.80
2018-02-23T12:28:21.103Z,35.50
2018-02-23T12:30:49.300Z,35.40
2018-02-23T12:33:16.106Z,36.00
2018-02-23T12:35:43.222Z,36.00
2018-02-23T12:38:11.085Z,35.60
2018-02-23T12:40:38.817Z,36.00
2018-02-23T12:43:05.802Z,35.90
2018-02-23T12:45:33.776Z,36.30
2018-02-23T12:48:01.063Z,36.50
2018-02-23T12:50:27.308Z,36.50
2018-02-23T12:52:53.513Z,36.20
2018-02-23T12:55:20.422Z,36.60
2018-02-23T12:57:48.514Z,37.40
2018-02-23T13:00:15.279Z,37.40
2018-02-23T13:02:41.484Z,37.20
2018-02-23T13:05:08.662Z,36.90
2018-02-23T13:07:34.863Z,37.40
2018-02-23T13:10:01.342Z,37.10
2018-02-23T13:12:27.584Z,37.50
2018-02-23T13:15:00.497Z,37.50
2018-02-23T13:17:27.857Z,37.30
2018-02-23T13:19:54.463Z,37.20
2018-02-23T13:22:21.430Z,37.30
2018-02-23T13:24:48.742Z,36.80
2018-02-23T13:27:20.570Z,37.30
2018-02-23T13:29:47.340Z,37.30
2018-02-23T13:32:14.222Z,37.70
2018-02-23T13:34:41.287Z,37.70
2018-02-23T13:37:07.631Z,37.70
2018-02-23T13:39:34.640Z,38.80
2018-02-23T13:42:02.028Z,38.20
2018-02-23T13:44:28.253Z,38.70
2018-02-23T13:46:54.485Z,38.30
2018-02-23T13:49:20.698Z,37.90
2018-02-23T13:51:47.383Z,37.70
2018-02-23T13:54:25.757Z,37.30
2018-02-23T13:56:51.975Z,37.30
2018-02-23T13:59:18.738Z,37.10
2018-02-23T14:01:45.504Z,37.40
2018-02-23T14:04:12.499Z,37.40
2018-02-23T14:06:39.034Z,37.30
2018-02-23T14:09:05.830Z,37.10
2018-02-23T14:11:32.629Z,36.50
2018-02-23T14:13:58.848Z,36.80
2018-02-23T14:16:25.064Z,36.60
2018-02-23T14:18:53.450Z,37.10
2018-02-23T14:21:20.113Z,37.00
2018-02-23T14:23:46.424Z,36.60
2018-02-23T14:26:12.947Z,36.40
2018-02-23T14:28:39.564Z,36.30
2018-02-23T14:31:06.548Z,37.10
2018-02-23T14:33:33.402Z,37.10
2018-02-23T14:35:59.644Z,37.10
2018-02-23T14:38:26.636Z,37.90
2018-02-23T14:40:54.087Z,37.50
2018-02-23T14:43:21.174Z,37.20
2018-02-23T14:45:48.068Z,37.20
2018-02-23T14:48:26.628Z,37.20
2018-02-23T14:51:02.470Z,37.80
2018-02-23T14:53:28.947Z,37.50
2018-02-23T14:55:55.831Z,37.00
2018-02-23T14:58:23.371Z,37.70
2018-02-23T15:00:49.582Z,37.70
2018-02-23T15:03:16.356Z,37.50
2018-02-23T15:05:43.491Z,37.80
2018-02-23T15:08:10.389Z,37.80
2018-02-23T15:10:36.743Z,38.60
2018-02-23T15:13:03.474Z,37.50
2018-02-23T15:15:30.265Z,37.60
2018-02-23T15:17:57.059Z,38.00
2018-02-23T15:20:24.343Z,37.70
2018-02-23T15:22:52.818Z,37.90
2018-02-23T15:25:20.111Z,37.80
2018-02-23T15:27:46.810Z,38.00
2018-02-23T15:30:26.741Z,38.60
2018-02-23T15:32:53.723Z,39.20
2018-02-23T15:35:20.680Z,39.20
2018-02-23T15:37:46.885Z,39.20
2018-02-23T15:40:13.846Z,40.10
2018-02-23T15:42:41.174Z,40.20
2018-02-23T15:45:08.557Z,40.40
2018-02-23T15:47:35.387Z,40.40
2018-02-23T15:50:20.421Z,41.00
2018-02-23T15:52:46.939Z,41.00
2018-02-23T15:55:13.964Z,40.90
2018-02-23T15:57:52.558Z,40.90
2018-02-23T16:00:19.595Z,41.70
2018-02-23T16:02:47.810Z,41.70
2018-02-23T16:05:14.848Z,41.80
2018-02-23T16:07:42.095Z,41.70
2018-02-23T16:10:09.563Z,41.80
2018-02-23T16:12:36.327Z,41.80
2018-02-23T16:15:02.567Z,42.20
2018-02-23T16:17:29.437Z,42.20
2018-02-23T16:19:56.626Z,42.80
2018-02-23T16:22:23.817Z,42.80
2018-02-23T16:24:50.094Z,42.70
2018-02-23T16:27:16.635Z,42.70
2018-02-23T16:29:44.218Z,43.20
2018-02-23T16:32:11.841Z,43.40
2018-02-23T16:34:38.045Z,43.40
2018-02-23T16:37:05.571Z,43.90
2018-02-23T16:39:32.342Z,43.80
2018-02-23T16:41:59.249Z,44.60
2018-02-23T16:44:26.846Z,44.50
2018-02-23T16:46:53.097Z,44.50
2018-02-23T16:49:19.271Z,44.90
2018-02-23T16:51:46.098Z,45.00
2018-02-23T16:54:12.320Z,44.80
2018-02-23T16:56:39.557Z,44.90
2018-02-23T16:59:05.939Z,45.00
2018-02-23T17:01:32.600Z,44.60
2018-02-23T17:03:59.852Z,44.70
2018-02-23T17:06:27.335Z,44.90
2018-02-23T17:08:53.590Z,44.90
2018-02-23T17:11:19.801Z,45.20
2018-02-23T17:13:46.414Z,44.60
2018-02-23T17:16:13.923Z,45.00
2018-02-23T17:18:40.640Z,45.00
2018-02-23T17:21:07.664Z,45.70
2018-02-23T17:23:33.991Z,45.70
2018-02-23T17:26:00.887Z,45.50
2018-02-23T17:28:27.747Z,46.50
2018-02-23T17:30:54.222Z,46.00
2018-02-23T17:33:21.157Z,46.00
2018-02-23T17:35:47.326Z,46.30
2018-02-23T17:38:13.540Z,46.70
2018-02-23T17:40:39.763Z,46.60
2018-02-23T17:43:06.603Z,46.80
2018-02-23T17:45:32.899Z,46.70
2018-02-23T17:47:59.909Z,46.60
2018-02-23T17:50:26.131Z,46.60
2018-02-23T17:52:52.335Z,47.00
2018-02-23T17:55:18.656Z,46.90
2018-02-23T17:57:44.931Z,47.60
2018-02-23T18:00:11.135Z,47.90
2018-02-23T18:02:37.694Z,47.50
2018-02-23T18:05:05.178Z,47.50
2018-02-23T18:07:32.146Z,47.60
2018-02-23T18:09:58.370Z,47.60
2018-02-23T18:12:24.781Z,47.60
2018-02-23T18:14:51.767Z,47.70
2018-02-23T18:17:18.113Z,47.70
2018-02-23T18:19:44.360Z,48.00
2018-02-23T18:22:10.597Z,48.10
2018-02-23T18:24:37.316Z,48.00
2018-02-23T18:27:03.611Z,48.10
2018-02-23T18:29:29.924Z,48.20
2018-02-23T18:31:56.767Z,48.00
2018-02-23T18:34:23.183Z,47.70
2018-02-23T18:36:50.167Z,48.00
2018-02-23T18:39:16.413Z,48.00
2018-02-23T18:41:42.724Z,47.20
2018-02-23T18:44:09.139Z,47.10
2018-02-23T18:46:35.370Z,47.30
2018-02-23T18:49:02.120Z,47.30
2018-02-23T18:51:29.075Z,47.40
2018-02-23T18:53:55.287Z,47.40
2018-02-23T18:56:21.730Z,48.10
2018-02-23T18:58:49.728Z,47.10
2018-02-23T19:01:16.082Z,47.10
2018-02-23T19:03:43.236Z,47.00
2018-02-23T19:06:10.640Z,47.00
2018-02-23T19:08:37.673Z,46.90
2018-02-23T19:11:04.662Z,46.90
2018-02-23T19:13:31.701Z,47.20
2018-02-23T19:15:57.958Z,47.20
2018-02-23T19:18:28.035Z,46.60
2018-02-23T19:20:56.929Z,46.60
2018-02-23T19:23:23.238Z,47.50
2018-02-23T19:25:49.573Z,47.30
2018-02-23T19:28:16.815Z,47.40
2018-02-23T19:30:43.906Z,46.90
2018-02-23T19:33:10.176Z,46.80
2018-02-23T19:35:37.440Z,47.60
2018-02-23T19:38:05.099Z,47.90
2018-02-23T19:40:32.088Z,47.90
2018-02-23T19:42:58.543Z,47.40
2018-02-23T19:45:26.072Z,46.90
2018-02-23T19:47:53.299Z,46.90
2018-02-23T19:50:19.794Z,47.50
2018-02-23T19:52:46.997Z,47.30
2018-02-23T19:55:13.247Z,47.20
2018-02-23T19:57:40.766Z,47.20
2018-02-23T20:00:07.858Z,47.70
2018-02-23T20:02:34.915Z,47.60
2018-02-23T20:05:01.299Z,48.10
2018-02-23T20:07:28.173Z,48.80
2018-02-23T20:09:54.407Z,48.50
2018-02-23T20:12:21.268Z,48.60
2018-02-23T20:14:48.823Z,48.40
2018-02-23T20:17:15.277Z,48.40
2018-02-23T20:19:42.236Z,48.30
2018-02-23T20:22:10.449Z,48.50
2018-02-23T20:24:36.655Z,48.80
2018-02-23T20:27:03.638Z,49.10
2018-02-23T20:29:30.775Z,49.00
2018-02-23T20:31:57.227Z,49.80
2018-02-23T20:34:24.759Z,49.30
2018-02-23T20:36:51.543Z,49.30
2018-02-23T20:39:18.498Z,49.10
2018-02-23T20:41:44.947Z,48.90
2018-02-23T20:44:11.620Z,49.00
2018-02-23T20:46:38.276Z,48.80
2018-02-23T20:49:05.739Z,48.60
2018-02-23T20:51:32.768Z,48.70
2018-02-23T20:53:59.366Z,49.10
2018-02-23T20:56:26.648Z,48.40
2018-02-23T20:58:53.111Z,48.30
2018-02-23T21:01:20.078Z,48.00
2018-02-23T21:03:46.302Z,48.00
2018-02-23T21:06:12.526Z,47.80
2018-02-23T21:08:39.773Z,48.50
2018-02-23T21:11:06.730Z,48.10
2018-02-23T21:13:32.945Z,48.10
2018-02-23T21:15:59.986Z,47.60
2018-02-23T21:18:26.946Z,47.30
2018-02-23T21:20:53.779Z,47.30
2018-02-23T21:23:21.350Z,48.20
2018-02-23T21:25:47.567Z,48.20
2018-02-23T21:28:15.669Z,47.80
2018-02-23T21:30:43.340Z,48.30
2018-02-23T21:33:09.940Z,48.20
2018-02-23T21:35:36.991Z,48.10
2018-02-23T21:38:03.287Z,48.10
2018-02-23T21:40:29.673Z,47.70
2018-02-23T21:42:56.105Z,47.50
2018-02-23T21:45:23.476Z,47.60
2018-02-23T21:47:50.294Z,47.50
2018-02-23T21:50:17.170Z,47.60
2018-02-23T21:52:43.353Z,47.40
2018-02-23T21:55:10.268Z,47.30
2018-02-23T21:57:36.503Z,47.00
2018-02-23T22:00:03.999Z,47.40
2018-02-23T22:02:31.569Z,47.40
2018-02-23T22:04:57.995Z,47.60
2018-02-23T22:07:24.233Z,47.70
2018-02-23T22:09:51.623Z,47.70
2018-02-23T22:12:18.613Z,48.10
2018-02-23T22:14:44.859Z,48.10
2018-02-23T22:17:11.719Z,47.70
2018-02-23T22:19:38.126Z,47.60
2018-02-23T22:22:04.990Z,47.70
2018-02-23T22:24:32.321Z,47.70
2018-02-23T22:26:59.062Z,47.80
2018-02-23T22:29:25.305Z,48.20
2018-02-23T22:31:52.265Z,48.10
2018-02-23T22:34:20.363Z,48.10
2018-02-23T22:36:46.585Z,48.10
2018-02-23T22:39:12.791Z,48.20
2018-02-23T22:41:39.329Z,48.80
2018-02-23T22:44:05.549Z,48.20
2018-02-23T22:46:31.774Z,48.40
2018-02-23T22:48:57.984Z,48.70
2018-02-23T22:51:24.314Z,48.60
2018-02-23T22:53:51.164Z,48.90
2018-02-23T22:56:17.968Z,48.70
2018-02-23T22:58:44.253Z,48.90
2018-02-23T23:01:10.475Z,48.90
2018-02-23T23:03:36.687Z,49.00
2018-02-23T23:06:03.456Z,48.90
2018-02-23T23:08:29.659Z,48.80
2018-02-23T23:10:55.886Z,48.60
2018-02-23T23:13:23.056Z,48.40
2018-02-23T23:15:49.362Z,48.50
2018-02-23T23:18:15.619Z,48.60
2018-02-23T23:20:42.407Z,48.80
2018-02-23T23:23:08.646Z,48.80
2018-02-23T23:25:34.879Z,48.80
2018-02-23T23:28:02.534Z,49.00
2018-02-23T23:30:28.755Z,48.90
2018-02-23T23:32:55.670Z,49.10
2018-02-23T23:35:22.638Z,48.40
2018-02-23T23:37:49.175Z,48.40
2018-02-23T23:40:16.755Z,48.10
2018-02-23T23:42:43.659Z,48.10
2018-02-23T23:45:11.748Z,48.40
2018-02-23T23:47:38.128Z,48.30
2018-02-23T23:50:05.388Z,48.40
2018-02-23T23:52:33.145Z,48.30
2018-02-23T23:55:02.051Z,48.20
2018-02-23T23:57:28.938Z,48.20
2018-02-23T23:59:55.373Z,48.10
